sensor_id;sensor_type;location;lat;lon;timestamp;pressure;altitude;pressure_sealevel;temperature
1532;BMP280;759;53.170;8.210;2024-02-26T00:02:04;92346.97;;;3.55
1532;BMP280;759;53.170;8.210;2024-02-26T00:04:29;92281.16;;;3.57
1532;BMP280;759;53.170;8.210;2024-02-26T00:06:55;92276.44;;;3.56
1532;BMP280;759;53.170;8.210;2024-02-26T00:09:20;92227.03;;;3.56
1532;BMP280;759;53.170;8.210;2024-02-26T00:11:46;92209.03;;;3.45
1532;BMP280;759;53.170;8.210;2024-02-26T00:14:11;92139.53;;;3.50
1532;BMP280;759;53.170;8.210;2024-02-26T00:16:39;92104.00;;;3.51
1532;BMP280;759;53.170;8.210;2024-02-26T00:19:04;92044.59;;;3.50
1532;BMP280;759;53.170;8.210;2024-02-26T00:21:30;92048.56;;;3.42
1532;BMP280;759;53.170;8.210;2024-02-26T00:23:55;91975.41;;;3.42
1532;BMP280;759;53.170;8.210;2024-02-26T00:26:20;91906.84;;;3.42
1532;BMP280;759;53.170;8.210;2024-02-26T00:28:46;91858.41;;;3.37
1532;BMP280;759;53.170;8.210;2024-02-26T00:31:11;91769.56;;;3.30
1532;BMP280;759;53.170;8.210;2024-02-26T00:33:36;91747.78;;;3.30
1532;BMP280;759;53.170;8.210;2024-02-26T00:36:02;91742.25;;;3.26
1532;BMP280;759;53.170;8.210;2024-02-26T00:38:27;91747.91;;;3.22
1532;BMP280;759;53.170;8.210;2024-02-26T00:40:52;91745.13;;;3.20
1532;BMP280;759;53.170;8.210;2024-02-26T00:43:18;91797.22;;;3.02
1532;BMP280;759;53.170;8.210;2024-02-26T00:45:43;91803.88;;;3.03
1532;BMP280;759;53.170;8.210;2024-02-26T00:48:08;91812.88;;;3.00
1532;BMP280;759;53.170;8.210;2024-02-26T00:50:33;91830.91;;;2.94
1532;BMP280;759;53.170;8.210;2024-02-26T00:53:00;91846.13;;;2.86
1532;BMP280;759;53.170;8.210;2024-02-26T00:55:25;91833.09;;;2.88
1532;BMP280;759;53.170;8.210;2024-02-26T00:57:50;91777.13;;;2.97
1532;BMP280;759;53.170;8.210;2024-02-26T01:00:16;91737.31;;;3.03
1532;BMP280;759;53.170;8.210;2024-02-26T01:02:41;91707.06;;;3.04
1532;BMP280;759;53.170;8.210;2024-02-26T01:05:07;91722.06;;;3.01
1532;BMP280;759;53.170;8.210;2024-02-26T01:07:32;91722.06;;;3.01
1532;BMP280;759;53.170;8.210;2024-02-26T01:10:01;91706.25;;;3.01
1532;BMP280;759;53.170;8.210;2024-02-26T01:12:26;91658.97;;;3.03
1532;BMP280;759;53.170;8.210;2024-02-26T01:14:51;91514.72;;;3.04
1532;BMP280;759;53.170;8.210;2024-02-26T01:17:16;91545.09;;;3.05
1532;BMP280;759;53.170;8.210;2024-02-26T01:19:41;91476.88;;;3.09
1532;BMP280;759;53.170;8.210;2024-02-26T01:22:07;91490.19;;;3.01
1532;BMP280;759;53.170;8.210;2024-02-26T01:24:32;89365.84;;;2.98
1532;BMP280;759;53.170;8.210;2024-02-26T01:26:57;89459.84;;;2.93
1532;BMP280;759;53.170;8.210;2024-02-26T01:29:22;89471.56;;;2.90
1532;BMP280;759;53.170;8.210;2024-02-26T01:31:47;89522.56;;;2.81
1532;BMP280;759;53.170;8.210;2024-02-26T01:34:12;89548.06;;;2.76
1532;BMP280;759;53.170;8.210;2024-02-26T01:36:39;89557.75;;;2.72
1532;BMP280;759;53.170;8.210;2024-02-26T01:39:04;89544.00;;;2.73
1532;BMP280;759;53.170;8.210;2024-02-26T01:41:29;89536.88;;;2.76
1532;BMP280;759;53.170;8.210;2024-02-26T01:43:55;89519.28;;;2.81
1532;BMP280;759;53.170;8.210;2024-02-26T01:46:21;89478.81;;;2.90
1532;BMP280;759;53.170;8.210;2024-02-26T01:48:46;89468.28;;;2.90
1532;BMP280;759;53.170;8.210;2024-02-26T01:51:12;89456.44;;;2.91
1532;BMP280;759;53.170;8.210;2024-02-26T01:53:39;89449.84;;;2.90
1532;BMP280;759;53.170;8.210;2024-02-26T01:56:05;89482.50;;;2.83
1532;BMP280;759;53.170;8.210;2024-02-26T01:58:30;89471.97;;;2.83
1532;BMP280;759;53.170;8.210;2024-02-26T02:00:55;89468.06;;;2.84
1532;BMP280;759;53.170;8.210;2024-02-26T02:03:20;89469.41;;;2.85
1532;BMP280;759;53.170;8.210;2024-02-26T02:05:46;89471.44;;;2.86
1532;BMP280;759;53.170;8.210;2024-02-26T02:08:11;89466.91;;;2.89
1532;BMP280;759;53.170;8.210;2024-02-26T02:10:37;89465.50;;;2.86
1532;BMP280;759;53.170;8.210;2024-02-26T02:13:03;89481.97;;;2.86
1532;BMP280;759;53.170;8.210;2024-02-26T02:15:29;89499.66;;;2.84
1532;BMP280;759;53.170;8.210;2024-02-26T02:17:55;89495.06;;;2.84
1532;BMP280;759;53.170;8.210;2024-02-26T02:20:24;89489.25;;;2.88
1532;BMP280;759;53.170;8.210;2024-02-26T02:22:49;89526.41;;;2.78
1532;BMP280;759;53.170;8.210;2024-02-26T02:25:14;89575.44;;;2.69
1532;BMP280;759;53.170;8.210;2024-02-26T02:27:40;89610.56;;;2.58
1532;BMP280;759;53.170;8.210;2024-02-26T02:30:05;89633.94;;;2.50
1532;BMP280;759;53.170;8.210;2024-02-26T02:32:31;89622.72;;;2.49
1532;BMP280;759;53.170;8.210;2024-02-26T02:34:56;89645.56;;;2.45
1532;BMP280;759;53.170;8.210;2024-02-26T02:37:21;89641.75;;;2.48
1532;BMP280;759;53.170;8.210;2024-02-26T02:39:47;89637.75;;;2.47
1532;BMP280;759;53.170;8.210;2024-02-26T02:42:12;89633.94;;;2.50
1532;BMP280;759;53.170;8.210;2024-02-26T02:44:37;89637.91;;;2.51
1532;BMP280;759;53.170;8.210;2024-02-26T02:47:02;89635.28;;;2.51
1532;BMP280;759;53.170;8.210;2024-02-26T02:49:27;89654.75;;;2.44
1532;BMP280;759;53.170;8.210;2024-02-26T02:51:53;89655.50;;;2.46
1532;BMP280;759;53.170;8.210;2024-02-26T02:54:19;89656.16;;;2.47
1532;BMP280;759;53.170;8.210;2024-02-26T02:56:44;89645.72;;;2.49
1532;BMP280;759;53.170;8.210;2024-02-26T02:59:10;89649.03;;;2.49
1532;BMP280;759;53.170;8.210;2024-02-26T03:01:35;89631.53;;;2.56
1532;BMP280;759;53.170;8.210;2024-02-26T03:04:02;89640.69;;;2.55
1532;BMP280;759;53.170;8.210;2024-02-26T03:06:27;89623.72;;;2.58
1532;BMP280;759;53.170;8.210;2024-02-26T03:08:53;89622.28;;;2.55
1532;BMP280;759;53.170;8.210;2024-02-26T03:11:19;89596.72;;;2.57
1532;BMP280;759;53.170;8.210;2024-02-26T03:13:44;89596.06;;;2.57
1532;BMP280;759;53.170;8.210;2024-02-26T03:16:10;89610.41;;;2.54
1532;BMP280;759;53.170;8.210;2024-02-26T03:18:35;89618.38;;;2.56
1532;BMP280;759;53.170;8.210;2024-02-26T03:21:00;89579.72;;;2.61
1532;BMP280;759;53.170;8.210;2024-02-26T03:23:27;89558.22;;;2.66
1532;BMP280;759;53.170;8.210;2024-02-26T03:25:52;89556.91;;;2.65
1532;BMP280;759;53.170;8.210;2024-02-26T03:28:18;89556.06;;;2.61
1532;BMP280;759;53.170;8.210;2024-02-26T03:30:43;89571.84;;;2.61
1532;BMP280;759;53.170;8.210;2024-02-26T03:33:08;89551.56;;;2.63
1532;BMP280;759;53.170;8.210;2024-02-26T03:35:35;89547.75;;;2.68
1532;BMP280;759;53.170;8.210;2024-02-26T03:38:00;89542.50;;;2.68
1532;BMP280;759;53.170;8.210;2024-02-26T03:40:25;89530.03;;;2.69
1532;BMP280;759;53.170;8.210;2024-02-26T03:42:50;89524.16;;;2.70
1532;BMP280;759;53.170;8.210;2024-02-26T03:45:17;89507.75;;;2.72
1532;BMP280;759;53.170;8.210;2024-02-26T03:47:43;89472.34;;;2.75
1532;BMP280;759;53.170;8.210;2024-02-26T03:50:08;89468.44;;;2.76
1532;BMP280;759;53.170;8.210;2024-02-26T03:52:33;89439.56;;;2.78
1532;BMP280;759;53.170;8.210;2024-02-26T03:54:58;89436.31;;;2.80
1532;BMP280;759;53.170;8.210;2024-02-26T03:57:24;89423.91;;;2.82
1532;BMP280;759;53.170;8.210;2024-02-26T03:59:49;89399.00;;;2.85
1532;BMP280;759;53.170;8.210;2024-02-26T04:02:14;89384.63;;;2.88
1532;BMP280;759;53.170;8.210;2024-02-26T04:04:40;89399.06;;;2.87
1532;BMP280;759;53.170;8.210;2024-02-26T04:07:06;89412.84;;;2.86
1532;BMP280;759;53.170;8.210;2024-02-26T04:09:31;89410.00;;;2.80
1532;BMP280;759;53.170;8.210;2024-02-26T04:11:56;89410.06;;;2.82
1532;BMP280;759;53.170;8.210;2024-02-26T04:14:21;89389.09;;;2.84
1532;BMP280;759;53.170;8.210;2024-02-26T04:16:46;89371.94;;;2.83
1532;BMP280;759;53.170;8.210;2024-02-26T04:19:17;89351.84;;;2.91
1532;BMP280;759;53.170;8.210;2024-02-26T04:21:42;89252.41;;;2.90
1532;BMP280;759;53.170;8.210;2024-02-26T04:24:07;89299.50;;;2.82
1532;BMP280;759;53.170;8.210;2024-02-26T04:26:33;89298.25;;;2.83
1532;BMP280;759;53.170;8.210;2024-02-26T04:28:58;89291.47;;;2.77
1532;BMP280;759;53.170;8.210;2024-02-26T04:31:23;89284.34;;;2.80
1532;BMP280;759;53.170;8.210;2024-02-26T04:33:49;89273.28;;;2.84
1532;BMP280;759;53.170;8.210;2024-02-26T04:36:14;89289.59;;;2.80
1532;BMP280;759;53.170;8.210;2024-02-26T04:38:42;89292.19;;;2.78
1532;BMP280;759;53.170;8.210;2024-02-26T04:41:08;89307.16;;;2.73
1532;BMP280;759;53.170;8.210;2024-02-26T04:43:33;89338.53;;;2.67
1532;BMP280;759;53.170;8.210;2024-02-26T04:46:06;89333.41;;;2.71
1532;BMP280;759;53.170;8.210;2024-02-26T04:48:33;89329.56;;;2.74
1532;BMP280;759;53.170;8.210;2024-02-26T04:50:58;89353.19;;;2.72
1532;BMP280;759;53.170;8.210;2024-02-26T04:53:23;89367.59;;;2.71
1532;BMP280;759;53.170;8.210;2024-02-26T04:55:49;89372.13;;;2.69
1532;BMP280;759;53.170;8.210;2024-02-26T05:26:33;89657.97;;;2.76
1532;BMP280;759;53.170;8.210;2024-02-26T05:28:58;89682.25;;;2.74
1532;BMP280;759;53.170;8.210;2024-02-26T05:31:25;89715.09;;;2.73
1532;BMP280;759;53.170;8.210;2024-02-26T05:33:50;89749.31;;;2.73
1532;BMP280;759;53.170;8.210;2024-02-26T05:36:21;89789.16;;;2.66
1532;BMP280;759;53.170;8.210;2024-02-26T05:38:47;89813.69;;;2.70
1532;BMP280;759;53.170;8.210;2024-02-26T05:41:12;89842.53;;;2.68
1532;BMP280;759;53.170;8.210;2024-02-26T05:43:39;89868.94;;;2.70
1532;BMP280;759;53.170;8.210;2024-02-26T05:46:04;89891.28;;;2.69
1532;BMP280;759;53.170;8.210;2024-02-26T05:48:29;89916.16;;;2.66
1532;BMP280;759;53.170;8.210;2024-02-26T05:50:54;89938.50;;;2.65
1532;BMP280;759;53.170;8.210;2024-02-26T05:53:20;89953.06;;;2.68
1532;BMP280;759;53.170;8.210;2024-02-26T05:55:45;89979.38;;;2.68
1532;BMP280;759;53.170;8.210;2024-02-26T05:58:10;89983.31;;;2.67
1532;BMP280;759;53.170;8.210;2024-02-26T06:00:35;90006.41;;;2.69
1532;BMP280;759;53.170;8.210;2024-02-26T06:03:01;90041.72;;;2.64
1532;BMP280;759;53.170;8.210;2024-02-26T06:05:27;90071.34;;;2.64
1532;BMP280;759;53.170;8.210;2024-02-26T06:07:52;90081.22;;;2.64
1532;BMP280;759;53.170;8.210;2024-02-26T06:10:17;90101.50;;;2.61
1532;BMP280;759;53.170;8.210;2024-02-26T06:12:46;90134.25;;;2.58
1532;BMP280;759;53.170;8.210;2024-02-26T06:15:11;90153.94;;;2.57
1532;BMP280;759;53.170;8.210;2024-02-26T06:17:37;90186.09;;;2.55
1532;BMP280;759;53.170;8.210;2024-02-26T06:20:02;90209.78;;;2.55
1532;BMP280;759;53.170;8.210;2024-02-26T06:22:29;90227.50;;;2.55
1532;BMP280;759;53.170;8.210;2024-02-26T06:24:54;90246.06;;;2.57
1532;BMP280;759;53.170;8.210;2024-02-26T06:27:19;90255.88;;;2.56
1532;BMP280;759;53.170;8.210;2024-02-26T06:29:46;90281.63;;;2.58
1532;BMP280;759;53.170;8.210;2024-02-26T06:32:11;90292.34;;;2.62
1532;BMP280;759;53.170;8.210;2024-02-26T06:34:36;90329.69;;;2.58
1532;BMP280;759;53.170;8.210;2024-02-26T06:37:03;90341.09;;;2.63
1532;BMP280;759;53.170;8.210;2024-02-26T06:39:28;90364.22;;;2.65
1532;BMP280;759;53.170;8.210;2024-02-26T06:41:53;90380.09;;;2.67
1532;BMP280;759;53.170;8.210;2024-02-26T06:44:25;90395.88;;;2.67
1532;BMP280;759;53.170;8.210;2024-02-26T06:46:51;90417.72;;;2.69
1532;BMP280;759;53.170;8.210;2024-02-26T06:49:19;90434.91;;;2.70
1532;BMP280;759;53.170;8.210;2024-02-26T06:51:44;90465.69;;;2.68
1532;BMP280;759;53.170;8.210;2024-02-26T06:54:09;90497.88;;;2.66
1532;BMP280;759;53.170;8.210;2024-02-26T06:56:35;90515.03;;;2.67
1532;BMP280;759;53.170;8.210;2024-02-26T06:59:00;90512.03;;;2.73
1532;BMP280;759;53.170;8.210;2024-02-26T07:01:26;90535.16;;;2.74
1532;BMP280;759;53.170;8.210;2024-02-26T07:03:51;90558.97;;;2.76
1532;BMP280;759;53.170;8.210;2024-02-26T07:06:17;90565.22;;;2.83
1532;BMP280;759;53.170;8.210;2024-02-26T07:08:42;90563.03;;;2.91
1532;BMP280;759;53.170;8.210;2024-02-26T07:11:07;90594.66;;;2.91
1532;BMP280;759;53.170;8.210;2024-02-26T07:13:33;90617.53;;;2.89
1532;BMP280;759;53.170;8.210;2024-02-26T07:15:58;90544.47;;;3.15
1532;BMP280;759;53.170;8.210;2024-02-26T07:18:24;90570.94;;;3.17
1532;BMP280;759;53.170;8.210;2024-02-26T07:20:49;90654.81;;;3.09
1532;BMP280;759;53.170;8.210;2024-02-26T07:23:14;90692.38;;;3.09
1532;BMP280;759;53.170;8.210;2024-02-26T07:25:39;90746.91;;;3.07
1532;BMP280;759;53.170;8.210;2024-02-26T07:28:05;90763.63;;;3.11
1532;BMP280;759;53.170;8.210;2024-02-26T07:30:31;90786.28;;;3.16
1532;BMP280;759;53.170;8.210;2024-02-26T07:32:56;90790.66;;;3.24
1532;BMP280;759;53.170;8.210;2024-02-26T07:35:23;90858.22;;;3.19
1532;BMP280;759;53.170;8.210;2024-02-26T07:37:48;90787.84;;;3.45
1532;BMP280;759;53.170;8.210;2024-02-26T07:40:15;90845.63;;;3.41
1532;BMP280;759;53.170;8.210;2024-02-26T07:42:42;90864.50;;;3.49
1532;BMP280;759;53.170;8.210;2024-02-26T07:45:10;90907.38;;;3.50
1532;BMP280;759;53.170;8.210;2024-02-26T07:47:35;90933.84;;;3.52
1532;BMP280;759;53.170;8.210;2024-02-26T07:50:01;90954.69;;;3.59
1532;BMP280;759;53.170;8.210;2024-02-26T07:52:28;91011.47;;;3.61
1532;BMP280;759;53.170;8.210;2024-02-26T07:54:54;91051.00;;;3.61
1532;BMP280;759;53.170;8.210;2024-02-26T07:57:20;91071.91;;;3.68
1532;BMP280;759;53.170;8.210;2024-02-26T07:59:46;91089.34;;;3.73
1532;BMP280;759;53.170;8.210;2024-02-26T08:02:17;91125.56;;;3.73
1532;BMP280;759;53.170;8.210;2024-02-26T08:04:43;91153.66;;;3.80
1532;BMP280;759;53.170;8.210;2024-02-26T08:07:08;91194.88;;;3.85
1532;BMP280;759;53.170;8.210;2024-02-26T08:09:35;91244.63;;;3.79
1532;BMP280;759;53.170;8.210;2024-02-26T08:12:02;91249.13;;;3.88
1532;BMP280;759;53.170;8.210;2024-02-26T08:14:27;91282.72;;;3.88
1532;BMP280;759;53.170;8.210;2024-02-26T08:16:52;91313.16;;;3.89
1532;BMP280;759;53.170;8.210;2024-02-26T08:19:18;91336.75;;;3.87
1532;BMP280;759;53.170;8.210;2024-02-26T08:21:44;91358.69;;;3.89
1532;BMP280;759;53.170;8.210;2024-02-26T08:24:10;91377.03;;;3.87
1532;BMP280;759;53.170;8.210;2024-02-26T08:26:36;91402.00;;;3.86
1532;BMP280;759;53.170;8.210;2024-02-26T08:29:01;91414.09;;;3.89
1532;BMP280;759;53.170;8.210;2024-02-26T08:31:27;91401.41;;;3.97
1532;BMP280;759;53.170;8.210;2024-02-26T08:33:54;91408.31;;;4.03
1532;BMP280;759;53.170;8.210;2024-02-26T08:36:19;91419.09;;;4.07
1532;BMP280;759;53.170;8.210;2024-02-26T08:38:45;91442.56;;;4.12
1532;BMP280;759;53.170;8.210;2024-02-26T08:41:10;91335.69;;;4.35
1532;BMP280;759;53.170;8.210;2024-02-26T08:43:36;91421.59;;;4.26
1532;BMP280;759;53.170;8.210;2024-02-26T08:46:03;91474.28;;;4.24
1532;BMP280;759;53.170;8.210;2024-02-26T08:48:30;91539.84;;;4.28
1532;BMP280;759;53.170;8.210;2024-02-26T08:50:55;91653.13;;;4.24
1532;BMP280;759;53.170;8.210;2024-02-26T08:53:21;91728.63;;;4.17
1532;BMP280;759;53.170;8.210;2024-02-26T08:55:46;91740.78;;;4.22
1532;BMP280;759;53.170;8.210;2024-02-26T08:58:15;91783.03;;;4.22
1532;BMP280;759;53.170;8.210;2024-02-26T09:00:42;91781.78;;;4.33
1532;BMP280;759;53.170;8.210;2024-02-26T09:03:08;91812.38;;;4.36
1532;BMP280;759;53.170;8.210;2024-02-26T09:05:34;91835.28;;;4.33
1532;BMP280;759;53.170;8.210;2024-02-26T09:08:06;91805.53;;;4.43
1532;BMP280;759;53.170;8.210;2024-02-26T09:10:36;91802.59;;;4.48
1532;BMP280;759;53.170;8.210;2024-02-26T09:13:08;91820.81;;;4.54
1532;BMP280;759;53.170;8.210;2024-02-26T09:15:34;91840.13;;;4.56
1532;BMP280;759;53.170;8.210;2024-02-26T09:17:59;91834.00;;;4.64
1532;BMP280;759;53.170;8.210;2024-02-26T09:20:24;91811.59;;;4.74
1532;BMP280;759;53.170;8.210;2024-02-26T09:22:49;91825.75;;;4.79
1532;BMP280;759;53.170;8.210;2024-02-26T09:25:15;91859.81;;;4.85
1532;BMP280;759;53.170;8.210;2024-02-26T09:27:41;91889.00;;;4.87
1532;BMP280;759;53.170;8.210;2024-02-26T09:30:06;91936.44;;;4.85
1532;BMP280;759;53.170;8.210;2024-02-26T09:32:32;91973.72;;;4.89
1532;BMP280;759;53.170;8.210;2024-02-26T09:34:57;91991.53;;;4.98
1532;BMP280;759;53.170;8.210;2024-02-26T09:37:23;91965.38;;;4.83
1532;BMP280;759;53.170;8.210;2024-02-26T09:39:48;92026.16;;;5.02
1532;BMP280;759;53.170;8.210;2024-02-26T09:42:13;92024.38;;;5.14
1532;BMP280;759;53.170;8.210;2024-02-26T09:44:39;92005.41;;;5.28
1532;BMP280;759;53.170;8.210;2024-02-26T09:47:06;92052.91;;;5.26
1532;BMP280;759;53.170;8.210;2024-02-26T09:49:32;92040.75;;;5.42
1532;BMP280;759;53.170;8.210;2024-02-26T09:51:58;92080.72;;;5.46
1532;BMP280;759;53.170;8.210;2024-02-26T09:54:24;92143.91;;;5.52
1532;BMP280;759;53.170;8.210;2024-02-26T09:56:51;92220.94;;;5.46
1532;BMP280;759;53.170;8.210;2024-02-26T09:59:18;92262.41;;;5.53
1532;BMP280;759;53.170;8.210;2024-02-26T10:01:44;92340.16;;;5.58
1532;BMP280;759;53.170;8.210;2024-02-26T10:04:09;92385.16;;;5.68
1532;BMP280;759;53.170;8.210;2024-02-26T10:06:36;92474.22;;;5.73
1532;BMP280;759;53.170;8.210;2024-02-26T10:09:01;92532.91;;;5.79
1532;BMP280;759;53.170;8.210;2024-02-26T10:11:30;92615.78;;;5.72
1532;BMP280;759;53.170;8.210;2024-02-26T10:13:56;92653.84;;;5.76
1532;BMP280;759;53.170;8.210;2024-02-26T10:16:22;92697.84;;;5.72
1532;BMP280;759;53.170;8.210;2024-02-26T10:18:48;92681.63;;;5.85
1532;BMP280;759;53.170;8.210;2024-02-26T10:21:13;92676.78;;;5.91
1532;BMP280;759;53.170;8.210;2024-02-26T10:23:39;92710.97;;;5.97
1532;BMP280;759;53.170;8.210;2024-02-26T10:26:04;92739.72;;;6.00
1532;BMP280;759;53.170;8.210;2024-02-26T10:28:29;92794.88;;;5.94
1532;BMP280;759;53.170;8.210;2024-02-26T10:30:54;92805.59;;;5.96
1532;BMP280;759;53.170;8.210;2024-02-26T10:33:20;92743.16;;;5.93
1532;BMP280;759;53.170;8.210;2024-02-26T10:35:46;92769.53;;;6.01
1532;BMP280;759;53.170;8.210;2024-02-26T10:38:16;92812.56;;;5.92
1532;BMP280;759;53.170;8.210;2024-02-26T10:40:48;92861.06;;;5.77
1532;BMP280;759;53.170;8.210;2024-02-26T10:43:15;92834.97;;;5.73
1532;BMP280;759;53.170;8.210;2024-02-26T10:45:43;92710.72;;;6.02
1532;BMP280;759;53.170;8.210;2024-02-26T10:48:13;92744.25;;;6.08
1532;BMP280;759;53.170;8.210;2024-02-26T10:50:42;92828.16;;;6.05
1532;BMP280;759;53.170;8.210;2024-02-26T10:53:12;92815.81;;;6.17
1532;BMP280;759;53.170;8.210;2024-02-26T10:55:38;92895.38;;;6.10
1532;BMP280;759;53.170;8.210;2024-02-26T10:58:04;92917.16;;;6.00
1532;BMP280;759;53.170;8.210;2024-02-26T11:00:30;92919.97;;;6.02
1532;BMP280;759;53.170;8.210;2024-02-26T11:02:56;92902.53;;;5.99
1532;BMP280;759;53.170;8.210;2024-02-26T11:05:23;92862.09;;;6.16
1532;BMP280;759;53.170;8.210;2024-02-26T11:07:49;92896.22;;;6.30
1532;BMP280;759;53.170;8.210;2024-02-26T11:10:15;92941.84;;;6.28
1532;BMP280;759;53.170;8.210;2024-02-26T11:12:40;92986.72;;;6.26
1532;BMP280;759;53.170;8.210;2024-02-26T11:15:06;92990.03;;;6.34
1532;BMP280;759;53.170;8.210;2024-02-26T11:17:38;92981.38;;;6.34
1532;BMP280;759;53.170;8.210;2024-02-26T11:20:04;92995.47;;;6.36
1532;BMP280;759;53.170;8.210;2024-02-26T11:22:30;92998.91;;;6.47
1532;BMP280;759;53.170;8.210;2024-02-26T11:24:56;93016.06;;;6.45
1532;BMP280;759;53.170;8.210;2024-02-26T11:27:35;92989.41;;;6.61
1532;BMP280;759;53.170;8.210;2024-02-26T11:30:02;93016.69;;;6.71
1532;BMP280;759;53.170;8.210;2024-02-26T11:32:30;92975.91;;;6.84
1532;BMP280;759;53.170;8.210;2024-02-26T11:34:56;93028.59;;;6.88
1532;BMP280;759;53.170;8.210;2024-02-26T11:37:22;93193.59;;;6.61
1532;BMP280;759;53.170;8.210;2024-02-26T11:39:48;93184.41;;;6.54
1532;BMP280;759;53.170;8.210;2024-02-26T11:42:14;93100.72;;;6.69
1532;BMP280;759;53.170;8.210;2024-02-26T11:44:39;93068.97;;;6.78
1532;BMP280;759;53.170;8.210;2024-02-26T11:47:13;93095.81;;;6.82
1532;BMP280;759;53.170;8.210;2024-02-26T11:49:39;93140.03;;;6.80
1532;BMP280;759;53.170;8.210;2024-02-26T11:52:05;93143.22;;;6.78
1532;BMP280;759;53.170;8.210;2024-02-26T11:57:27;93109.72;;;7.08
1532;BMP280;759;53.170;8.210;2024-02-26T11:59:56;93134.94;;;6.99
1532;BMP280;759;53.170;8.210;2024-02-26T12:02:37;93194.56;;;6.73
1532;BMP280;759;53.170;8.210;2024-02-26T12:05:05;93167.50;;;6.75
1532;BMP280;759;53.170;8.210;2024-02-26T12:07:36;93142.50;;;6.60
1532;BMP280;759;53.170;8.210;2024-02-26T12:10:23;93080.69;;;6.75
1532;BMP280;759;53.170;8.210;2024-02-26T12:12:54;93009.53;;;6.99
1532;BMP280;759;53.170;8.210;2024-02-26T12:15:22;93066.97;;;7.04
1532;BMP280;759;53.170;8.210;2024-02-26T12:17:48;93193.69;;;6.96
1532;BMP280;759;53.170;8.210;2024-02-26T12:20:15;93225.19;;;6.92
1532;BMP280;759;53.170;8.210;2024-02-26T12:22:41;93223.91;;;7.00
1532;BMP280;759;53.170;8.210;2024-02-26T12:25:15;93246.09;;;7.13
1532;BMP280;759;53.170;8.210;2024-02-26T12:27:58;93310.22;;;7.26
1532;BMP280;759;53.170;8.210;2024-02-26T12:31:03;93301.06;;;7.62
1532;BMP280;759;53.170;8.210;2024-02-26T12:33:29;93510.63;;;7.76
1532;BMP280;759;53.170;8.210;2024-02-26T12:35:56;93557.03;;;7.82
1532;BMP280;759;53.170;8.210;2024-02-26T12:38:22;93787.13;;;7.85
1532;BMP280;759;53.170;8.210;2024-02-26T12:41:08;93767.31;;;7.63
1532;BMP280;759;53.170;8.210;2024-02-26T12:46:25;93760.06;;;7.56
1532;BMP280;759;53.170;8.210;2024-02-26T12:48:50;93688.34;;;7.56
1532;BMP280;759;53.170;8.210;2024-02-26T12:51:17;93603.13;;;7.69
1532;BMP280;759;53.170;8.210;2024-02-26T12:53:43;93672.50;;;7.81
1532;BMP280;759;53.170;8.210;2024-02-26T12:56:09;93751.53;;;7.81
1532;BMP280;759;53.170;8.210;2024-02-26T12:58:35;93801.50;;;7.67
1532;BMP280;759;53.170;8.210;2024-02-26T13:01:03;93716.69;;;7.61
1532;BMP280;759;53.170;8.210;2024-02-26T13:03:28;93617.91;;;7.47
1532;BMP280;759;53.170;8.210;2024-02-26T13:05:53;93560.78;;;7.31
1532;BMP280;759;53.170;8.210;2024-02-26T13:08:19;93452.16;;;7.25
1532;BMP280;759;53.170;8.210;2024-02-26T13:10:45;93289.75;;;7.19
1532;BMP280;759;53.170;8.210;2024-02-26T13:13:10;93293.44;;;7.24
1532;BMP280;759;53.170;8.210;2024-02-26T13:15:36;93273.81;;;7.19
1532;BMP280;759;53.170;8.210;2024-02-26T13:18:09;93204.66;;;6.92
1532;BMP280;759;53.170;8.210;2024-02-26T13:20:34;93143.09;;;6.94
1532;BMP280;759;53.170;8.210;2024-02-26T13:23:01;93062.13;;;6.93
1532;BMP280;759;53.170;8.210;2024-02-26T13:25:26;93008.34;;;6.92
1532;BMP280;759;53.170;8.210;2024-02-26T13:27:51;92938.22;;;7.03
1532;BMP280;759;53.170;8.210;2024-02-26T13:30:17;92931.66;;;6.86
1532;BMP280;759;53.170;8.210;2024-02-26T13:32:44;92862.31;;;6.90
1532;BMP280;759;53.170;8.210;2024-02-26T13:35:10;92788.66;;;6.71
1532;BMP280;759;53.170;8.210;2024-02-26T13:37:36;92764.94;;;6.73
1532;BMP280;759;53.170;8.210;2024-02-26T13:40:09;92774.69;;;6.71
1532;BMP280;759;53.170;8.210;2024-02-26T13:42:34;92749.22;;;6.85
1532;BMP280;759;53.170;8.210;2024-02-26T13:45:00;92784.25;;;6.83
1532;BMP280;759;53.170;8.210;2024-02-26T13:47:27;92849.88;;;6.83
1532;BMP280;759;53.170;8.210;2024-02-26T13:49:52;92855.19;;;6.65
1532;BMP280;759;53.170;8.210;2024-02-26T13:52:17;92833.63;;;6.79
1532;BMP280;759;53.170;8.210;2024-02-26T13:54:45;92827.63;;;6.78
1532;BMP280;759;53.170;8.210;2024-02-26T13:57:10;92773.56;;;7.01
1532;BMP280;759;53.170;8.210;2024-02-26T13:59:35;92841.91;;;6.83
1532;BMP280;759;53.170;8.210;2024-02-26T14:02:00;92878.22;;;6.63
1532;BMP280;759;53.170;8.210;2024-02-26T14:04:25;92857.00;;;6.63
1532;BMP280;759;53.170;8.210;2024-02-26T14:06:51;92756.63;;;6.86
1532;BMP280;759;53.170;8.210;2024-02-26T14:09:16;92780.03;;;6.80
1532;BMP280;759;53.170;8.210;2024-02-26T14:11:46;92800.22;;;6.66
1532;BMP280;759;53.170;8.210;2024-02-26T14:14:12;92813.97;;;6.55
1532;BMP280;759;53.170;8.210;2024-02-26T14:16:37;92719.41;;;6.67
1532;BMP280;759;53.170;8.210;2024-02-26T14:19:02;92711.91;;;6.73
1532;BMP280;759;53.170;8.210;2024-02-26T14:21:28;92737.34;;;6.76
1532;BMP280;759;53.170;8.210;2024-02-26T14:23:54;92746.22;;;6.71
1532;BMP280;759;53.170;8.210;2024-02-26T14:26:20;92777.47;;;6.63
1532;BMP280;759;53.170;8.210;2024-02-26T14:28:46;92752.75;;;6.60
1532;BMP280;759;53.170;8.210;2024-02-26T14:31:11;92693.78;;;6.79
1532;BMP280;759;53.170;8.210;2024-02-26T14:33:39;92716.94;;;6.79
1532;BMP280;759;53.170;8.210;2024-02-26T14:36:07;92749.03;;;6.73
1532;BMP280;759;53.170;8.210;2024-02-26T14:38:33;92736.91;;;6.80
1532;BMP280;759;53.170;8.210;2024-02-26T14:40:58;92763.84;;;6.76
1532;BMP280;759;53.170;8.210;2024-02-26T14:43:23;92759.03;;;6.65
1532;BMP280;759;53.170;8.210;2024-02-26T14:45:48;92679.50;;;6.65
1532;BMP280;759;53.170;8.210;2024-02-26T14:48:13;92640.03;;;6.69
1532;BMP280;759;53.170;8.210;2024-02-26T14:50:38;92673.09;;;6.68
1532;BMP280;759;53.170;8.210;2024-02-26T14:53:03;92656.75;;;6.62
1532;BMP280;759;53.170;8.210;2024-02-26T14:55:29;92628.16;;;6.70
1532;BMP280;759;53.170;8.210;2024-02-26T14:57:55;92633.88;;;6.66
1532;BMP280;759;53.170;8.210;2024-02-26T15:00:20;92618.13;;;6.69
1532;BMP280;759;53.170;8.210;2024-02-26T15:02:46;92642.81;;;6.71
1532;BMP280;759;53.170;8.210;2024-02-26T15:05:11;92649.78;;;6.66
1532;BMP280;759;53.170;8.210;2024-02-26T15:07:37;92625.66;;;6.72
1532;BMP280;759;53.170;8.210;2024-02-26T15:10:05;92649.78;;;6.66
1532;BMP280;759;53.170;8.210;2024-02-26T15:12:30;92656.31;;;6.56
1532;BMP280;759;53.170;8.210;2024-02-26T15:14:55;92658.66;;;6.52
1532;BMP280;759;53.170;8.210;2024-02-26T15:17:21;92627.00;;;6.54
1532;BMP280;759;53.170;8.210;2024-02-26T15:19:46;92622.00;;;6.58
1532;BMP280;759;53.170;8.210;2024-02-26T15:22:12;92611.25;;;6.56
1532;BMP280;759;53.170;8.210;2024-02-26T15:24:37;92642.19;;;6.43
1532;BMP280;759;53.170;8.210;2024-02-26T15:27:02;92612.75;;;6.39
1532;BMP280;759;53.170;8.210;2024-02-26T15:29:28;92574.38;;;6.40